sensor_id;sensor_type;location;lat;lon;timestamp;pressure;altitude;pressure_sealevel;temperature;humidity
49178;BME280;35016;55.674;37.468;2022-10-30T00:01:22;97308.97;;;10.83;81.84
49178;BME280;35016;55.674;37.468;2022-10-30T00:03:50;97304.19;;;10.80;82.02
49178;BME280;35016;55.674;37.468;2022-10-30T00:06:17;97294.59;;;10.82;82.06
49178;BME280;35016;55.674;37.468;2022-10-30T00:08:44;97285.03;;;10.85;81.52
49178;BME280;35016;55.674;37.468;2022-10-30T00:11:11;97299.88;;;10.88;81.67
49178;BME280;35016;55.674;37.468;2022-10-30T00:13:39;97309.78;;;10.92;81.36
49178;BME280;35016;55.674;37.468;2022-10-30T00:16:09;97313.28;;;10.93;81.81
49178;BME280;35016;55.674;37.468;2022-10-30T00:18:37;97281.88;;;10.92;81.51
49178;BME280;35016;55.674;37.468;2022-10-30T00:21:09;97283.13;;;10.85;81.55
49178;BME280;35016;55.674;37.468;2022-10-30T00:23:37;97280.91;;;10.96;81.99
49178;BME280;35016;55.674;37.468;2022-10-30T00:26:06;97282.22;;;10.99;81.75
49178;BME280;35016;55.674;37.468;2022-10-30T00:28:33;97294.34;;;11.01;81.81
49178;BME280;35016;55.674;37.468;2022-10-30T00:31:02;97273.72;;;10.92;81.63
49178;BME280;35016;55.674;37.468;2022-10-30T00:33:31;97259.22;;;10.88;81.28
49178;BME280;35016;55.674;37.468;2022-10-30T00:36:00;97263.25;;;10.99;81.86
49178;BME280;35016;55.674;37.468;2022-10-30T00:38:28;97263.09;;;11.04;81.93
49178;BME280;35016;55.674;37.468;2022-10-30T00:40:56;97266.75;;;10.99;81.49
49178;BME280;35016;55.674;37.468;2022-10-30T00:45:55;97270.75;;;11.02;81.83
49178;BME280;35016;55.674;37.468;2022-10-30T00:48:25;97276.97;;;11.02;81.66
49178;BME280;35016;55.674;37.468;2022-10-30T00:50:56;97261.16;;;11.04;81.68
49178;BME280;35016;55.674;37.468;2022-10-30T00:53:27;97260.38;;;11.04;81.47
49178;BME280;35016;55.674;37.468;2022-10-30T00:55:59;97250.31;;;11.04;81.41
49178;BME280;35016;55.674;37.468;2022-10-30T00:58:40;97230.50;;;10.95;81.31
49178;BME280;35016;55.674;37.468;2022-10-30T01:01:14;97221.09;;;10.93;81.18
49178;BME280;35016;55.674;37.468;2022-10-30T01:03:44;97245.22;;;11.03;81.10
49178;BME280;35016;55.674;37.468;2022-10-30T01:06:14;97236.28;;;11.02;81.61
49178;BME280;35016;55.674;37.468;2022-10-30T01:08:42;97249.69;;;11.07;81.36
49178;BME280;35016;55.674;37.468;2022-10-30T01:11:10;97238.66;;;11.04;81.20
49178;BME280;35016;55.674;37.468;2022-10-30T01:13:39;97232.13;;;11.05;81.47
49178;BME280;35016;55.674;37.468;2022-10-30T01:25:55;97218.41;;;11.10;81.48
49178;BME280;35016;55.674;37.468;2022-10-30T01:28:33;97203.25;;;11.00;81.58
49178;BME280;35016;55.674;37.468;2022-10-30T01:31:43;97212.03;;;11.06;81.19
49178;BME280;35016;55.674;37.468;2022-10-30T01:40:16;97207.88;;;11.08;81.13
49178;BME280;35016;55.674;37.468;2022-10-30T01:42:49;97225.28;;;11.07;81.00
49178;BME280;35016;55.674;37.468;2022-10-30T02:01:40;97225.75;;;11.18;80.75
49178;BME280;35016;55.674;37.468;2022-10-30T02:04:08;97208.66;;;11.17;80.70
49178;BME280;35016;55.674;37.468;2022-10-30T02:06:37;97211.84;;;11.20;80.86
49178;BME280;35016;55.674;37.468;2022-10-30T02:09:06;97257.97;;;11.20;80.81
49178;BME280;35016;55.674;37.468;2022-10-30T02:11:36;97227.66;;;11.17;80.29
49178;BME280;35016;55.674;37.468;2022-10-30T02:14:05;97241.53;;;11.16;80.56
49178;BME280;35016;55.674;37.468;2022-10-30T02:16:36;97222.88;;;11.14;80.12
49178;BME280;35016;55.674;37.468;2022-10-30T02:19:04;97238.03;;;11.15;80.14
49178;BME280;35016;55.674;37.468;2022-10-30T02:21:33;97224.00;;;11.13;79.58
49178;BME280;35016;55.674;37.468;2022-10-30T02:24:00;97235.63;;;11.05;79.55
49178;BME280;35016;55.674;37.468;2022-10-30T02:26:27;97228.47;;;11.09;79.61
49178;BME280;35016;55.674;37.468;2022-10-30T02:28:54;97226.53;;;11.10;79.23
49178;BME280;35016;55.674;37.468;2022-10-30T02:31:21;97227.19;;;11.07;78.87
49178;BME280;35016;55.674;37.468;2022-10-30T02:33:49;97226.06;;;11.08;78.34
49178;BME280;35016;55.674;37.468;2022-10-30T02:36:16;97260.06;;;11.05;78.78
49178;BME280;35016;55.674;37.468;2022-10-30T02:38:43;97241.88;;;11.06;78.74
49178;BME280;35016;55.674;37.468;2022-10-30T02:41:11;97249.19;;;11.05;78.26
49178;BME280;35016;55.674;37.468;2022-10-30T02:43:38;97247.94;;;11.03;78.47
49178;BME280;35016;55.674;37.468;2022-10-30T02:46:05;97240.59;;;11.03;78.10
49178;BME280;35016;55.674;37.468;2022-10-30T02:48:32;97249.34;;;11.00;77.76
49178;BME280;35016;55.674;37.468;2022-10-30T02:51:00;97234.50;;;10.98;77.88
49178;BME280;35016;55.674;37.468;2022-10-30T02:53:28;97248.69;;;10.95;77.98
49178;BME280;35016;55.674;37.468;2022-10-30T02:56:01;97227.94;;;10.90;77.96
49178;BME280;35016;55.674;37.468;2022-10-30T02:58:29;97227.78;;;10.86;77.44
49178;BME280;35016;55.674;37.468;2022-10-30T03:00:56;97244.69;;;10.83;77.70
49178;BME280;35016;55.674;37.468;2022-10-30T03:03:23;97222.69;;;10.76;77.46
49178;BME280;35016;55.674;37.468;2022-10-30T03:05:50;97222.53;;;10.73;77.23
49178;BME280;35016;55.674;37.468;2022-10-30T03:08:17;97238.63;;;10.78;76.88
49178;BME280;35016;55.674;37.468;2022-10-30T03:10:44;97236.06;;;10.73;77.06
49178;BME280;35016;55.674;37.468;2022-10-30T03:13:10;97222.63;;;10.68;77.21
49178;BME280;35016;55.674;37.468;2022-10-30T03:15:37;97225.66;;;10.66;76.91
49178;BME280;35016;55.674;37.468;2022-10-30T03:18:04;97204.28;;;10.56;77.10
49178;BME280;35016;55.674;37.468;2022-10-30T03:20:37;97231.41;;;10.56;77.24
49178;BME280;35016;55.674;37.468;2022-10-30T03:23:04;97214.31;;;10.47;76.71
49178;BME280;35016;55.674;37.468;2022-10-30T03:25:31;97229.47;;;10.48;76.93
49178;BME280;35016;55.674;37.468;2022-10-30T03:27:59;97238.06;;;10.41;76.98
49178;BME280;35016;55.674;37.468;2022-10-30T03:30:27;97220.94;;;10.32;76.96
49178;BME280;35016;55.674;37.468;2022-10-30T03:32:59;97219.66;;;10.30;77.08
49178;BME280;35016;55.674;37.468;2022-10-30T03:35:27;97192.31;;;10.09;76.79
49178;BME280;35016;55.674;37.468;2022-10-30T03:37:54;97228.38;;;10.18;77.00
49178;BME280;35016;55.674;37.468;2022-10-30T03:40:21;97226.59;;;10.13;76.90
49178;BME280;35016;55.674;37.468;2022-10-30T03:42:48;97220.66;;;10.11;76.22
49178;BME280;35016;55.674;37.468;2022-10-30T03:45:16;97263.72;;;10.13;76.80
49178;BME280;35016;55.674;37.468;2022-10-30T03:47:43;97250.97;;;10.13;76.83
49178;BME280;35016;55.674;37.468;2022-10-30T03:50:10;97241.06;;;10.09;76.64
49178;BME280;35016;55.674;37.468;2022-10-30T03:52:37;97245.56;;;10.13;76.88
49178;BME280;35016;55.674;37.468;2022-10-30T03:55:05;97220.50;;;10.08;76.63
49178;BME280;35016;55.674;37.468;2022-10-30T03:57:37;97208.34;;;9.97;76.72
49178;BME280;35016;55.674;37.468;2022-10-30T04:00:10;97236.13;;;10.11;76.17
49178;BME280;35016;55.674;37.468;2022-10-30T04:02:50;97239.84;;;10.15;75.72
49178;BME280;35016;55.674;37.468;2022-10-30T04:05:21;97231.22;;;10.13;76.38
49178;BME280;35016;55.674;37.468;2022-10-30T04:07:58;97221.91;;;9.97;75.84
49178;BME280;35016;55.674;37.468;2022-10-30T04:10:26;97221.91;;;9.97;76.36
49178;BME280;35016;55.674;37.468;2022-10-30T04:13:03;97215.03;;;9.90;75.87
49178;BME280;35016;55.674;37.468;2022-10-30T04:15:32;97229.69;;;9.98;75.75
49178;BME280;35016;55.674;37.468;2022-10-30T04:17:59;97225.72;;;9.96;75.73
49178;BME280;35016;55.674;37.468;2022-10-30T04:20:28;97249.63;;;10.02;75.70
49178;BME280;35016;55.674;37.468;2022-10-30T04:22:57;97241.97;;;9.96;75.59
49178;BME280;35016;55.674;37.468;2022-10-30T04:25:25;97229.00;;;9.84;75.12
49178;BME280;35016;55.674;37.468;2022-10-30T04:27:54;97215.34;;;9.89;75.58
49178;BME280;35016;55.674;37.468;2022-10-30T04:30:22;97280.94;;;9.86;75.29
49178;BME280;35016;55.674;37.468;2022-10-30T04:32:55;97220.50;;;9.77;74.99
49178;BME280;35016;55.674;37.468;2022-10-30T04:35:25;97221.00;;;9.79;75.14
49178;BME280;35016;55.674;37.468;2022-10-30T04:37:58;97228.69;;;9.85;74.87
49178;BME280;35016;55.674;37.468;2022-10-30T04:40:28;97217.66;;;9.82;75.33
49178;BME280;35016;55.674;37.468;2022-10-30T04:43:00;97230.28;;;9.86;74.91
49178;BME280;35016;55.674;37.468;2022-10-30T04:45:28;97216.88;;;9.81;74.69
49178;BME280;35016;55.674;37.468;2022-10-30T04:48:05;97220.50;;;9.77;74.05
49178;BME280;35016;55.674;37.468;2022-10-30T04:50:33;97224.16;;;9.72;74.47
49178;BME280;35016;55.674;37.468;2022-10-30T04:53:04;97213.44;;;9.67;74.74
49178;BME280;35016;55.674;37.468;2022-10-30T04:55:32;97204.19;;;9.59;74.86
49178;BME280;35016;55.674;37.468;2022-10-30T04:57:59;97236.22;;;9.44;74.71
49178;BME280;35016;55.674;37.468;2022-10-30T05:00:31;97206.59;;;9.39;74.71
49178;BME280;35016;55.674;37.468;2022-10-30T05:03:13;97207.19;;;9.13;74.97
49178;BME280;35016;55.674;37.468;2022-10-30T05:05:43;97211.06;;;9.21;74.78
49178;BME280;35016;55.674;37.468;2022-10-30T05:08:10;97207.13;;;9.05;74.57
49178;BME280;35016;55.674;37.468;2022-10-30T05:10:40;97205.22;;;9.05;75.17
49178;BME280;35016;55.674;37.468;2022-10-30T05:13:09;97228.13;;;9.08;75.41
49178;BME280;35016;55.674;37.468;2022-10-30T05:15:38;97213.63;;;9.04;75.49
49178;BME280;35016;55.674;37.468;2022-10-30T05:18:05;97201.22;;;9.03;75.27
49178;BME280;35016;55.674;37.468;2022-10-30T05:20:32;97206.19;;;9.09;75.36
49178;BME280;35016;55.674;37.468;2022-10-30T05:22:59;97216.22;;;9.09;75.34
49178;BME280;35016;55.674;37.468;2022-10-30T05:25:27;97215.53;;;9.03;75.60
49178;BME280;35016;55.674;37.468;2022-10-30T05:28:00;97198.81;;;9.01;75.37
49178;BME280;35016;55.674;37.468;2022-10-30T05:30:34;97202.81;;;9.04;75.16
49178;BME280;35016;55.674;37.468;2022-10-30T05:33:06;97226.41;;;9.12;75.65
49178;BME280;35016;55.674;37.468;2022-10-30T05:35:34;97226.91;;;9.14;74.89
49178;BME280;35016;55.674;37.468;2022-10-30T05:38:05;97227.09;;;9.17;75.06
49178;BME280;35016;55.674;37.468;2022-10-30T05:40:34;97223.16;;;9.23;74.88
49178;BME280;35016;55.674;37.468;2022-10-30T05:43:02;97247.00;;;9.21;74.74
49178;BME280;35016;55.674;37.468;2022-10-30T05:45:31;97225.94;;;9.32;74.62
49178;BME280;35016;55.674;37.468;2022-10-30T05:48:04;97212.34;;;9.23;74.75
49178;BME280;35016;55.674;37.468;2022-10-30T05:50:39;97235.00;;;9.27;74.62
49178;BME280;35016;55.674;37.468;2022-10-30T05:53:24;97244.41;;;9.30;74.66
49178;BME280;35016;55.674;37.468;2022-10-30T05:55:57;97232.28;;;9.27;74.70
49178;BME280;35016;55.674;37.468;2022-10-30T05:58:30;97229.75;;;9.31;74.96
49178;BME280;35016;55.674;37.468;2022-10-30T06:01:04;97238.97;;;9.30;74.39
49178;BME280;35016;55.674;37.468;2022-10-30T06:03:39;97241.88;;;9.34;74.52
49178;BME280;35016;55.674;37.468;2022-10-30T06:06:11;97251.09;;;9.32;74.69
49178;BME280;35016;55.674;37.468;2022-10-30T06:08:38;97232.06;;;9.24;74.00
49178;BME280;35016;55.674;37.468;2022-10-30T06:11:31;97258.41;;;9.32;73.99
49178;BME280;35016;55.674;37.468;2022-10-30T06:13:59;97238.66;;;9.09;74.50
49178;BME280;35016;55.674;37.468;2022-10-30T06:16:56;97309.75;;;8.96;74.49
49178;BME280;35016;55.674;37.468;2022-10-30T06:19:32;97324.38;;;8.81;73.90
49178;BME280;35016;55.674;37.468;2022-10-30T06:22:25;97286.97;;;8.47;74.16
49178;BME280;35016;55.674;37.468;2022-10-30T06:24:58;97285.13;;;8.29;74.29
49178;BME280;35016;55.674;37.468;2022-10-30T06:27:44;97280.22;;;8.17;74.82
49178;BME280;35016;55.674;37.468;2022-10-30T06:30:11;97304.47;;;8.03;74.94
49178;BME280;35016;55.674;37.468;2022-10-30T06:32:39;97321.06;;;7.97;74.64
49178;BME280;35016;55.674;37.468;2022-10-30T06:35:07;97296.00;;;7.77;74.15
49178;BME280;35016;55.674;37.468;2022-10-30T06:37:47;97307.47;;;7.69;74.05
49178;BME280;35016;55.674;37.468;2022-10-30T06:40:15;97316.16;;;7.66;73.92
49178;BME280;35016;55.674;37.468;2022-10-30T06:43:05;97317.72;;;7.54;73.58
49178;BME280;35016;55.674;37.468;2022-10-30T06:46:06;97324.34;;;7.61;71.98
49178;BME280;35016;55.674;37.468;2022-10-30T06:48:39;97313.03;;;7.59;72.89
49178;BME280;35016;55.674;37.468;2022-10-30T06:51:06;97316.34;;;7.56;72.10
49178;BME280;35016;55.674;37.468;2022-10-30T06:53:37;97318.22;;;7.56;71.95
49178;BME280;35016;55.674;37.468;2022-10-30T06:56:35;97328.13;;;7.60;69.61
49178;BME280;35016;55.674;37.468;2022-10-30T06:59:48;97302.97;;;7.46;71.47
49178;BME280;35016;55.674;37.468;2022-10-30T07:02:42;97378.94;;;7.53;71.40
49178;BME280;35016;55.674;37.468;2022-10-30T07:05:11;97337.81;;;7.61;71.45
49178;BME280;35016;55.674;37.468;2022-10-30T07:07:58;97311.06;;;7.65;70.00
49178;BME280;35016;55.674;37.468;2022-10-30T07:10:28;97332.75;;;7.73;70.66
49178;BME280;35016;55.674;37.468;2022-10-30T07:13:18;97337.66;;;7.71;70.77
49178;BME280;35016;55.674;37.468;2022-10-30T07:16:04;97322.44;;;7.62;69.41
49178;BME280;35016;55.674;37.468;2022-10-30T07:18:45;97309.59;;;7.72;68.83
49178;BME280;35016;55.674;37.468;2022-10-30T07:21:14;97321.06;;;7.64;68.56
49178;BME280;35016;55.674;37.468;2022-10-30T07:23:46;97314.44;;;7.57;67.79
49178;BME280;35016;55.674;37.468;2022-10-30T07:26:29;97316.91;;;7.53;68.36
49178;BME280;35016;55.674;37.468;2022-10-30T07:29:01;97291.06;;;7.52;68.53
49178;BME280;35016;55.674;37.468;2022-10-30T07:31:45;97299.78;;;7.63;67.74
49178;BME280;35016;55.674;37.468;2022-10-30T07:34:31;97292.47;;;7.63;67.76
49178;BME280;35016;55.674;37.468;2022-10-30T07:37:22;97283.41;;;7.73;68.25
49178;BME280;35016;55.674;37.468;2022-10-30T07:40:06;97301.56;;;7.67;67.69
49178;BME280;35016;55.674;37.468;2022-10-30T07:43:05;97272.13;;;7.71;67.54
49178;BME280;35016;55.674;37.468;2022-10-30T07:45:55;97269.72;;;7.69;67.78
49178;BME280;35016;55.674;37.468;2022-10-30T07:48:45;97263.50;;;7.69;67.11
49178;BME280;35016;55.674;37.468;2022-10-30T07:51:26;97282.00;;;7.75;67.12
49178;BME280;35016;55.674;37.468;2022-10-30T07:53:54;97284.81;;;7.70;66.72
49178;BME280;35016;55.674;37.468;2022-10-30T07:56:23;97261.03;;;7.72;67.27
49178;BME280;35016;55.674;37.468;2022-10-30T07:58:54;97256.53;;;7.68;67.14
49178;BME280;35016;55.674;37.468;2022-10-30T08:01:35;97274.41;;;7.77;66.96
49178;BME280;35016;55.674;37.468;2022-10-30T08:04:19;97256.78;;;7.85;66.77
49178;BME280;35016;55.674;37.468;2022-10-30T08:06:46;97257.56;;;7.86;66.65
49178;BME280;35016;55.674;37.468;2022-10-30T08:09:21;97272.28;;;7.93;66.26
49178;BME280;35016;55.674;37.468;2022-10-30T08:11:49;97282.38;;;8.01;66.89
49178;BME280;35016;55.674;37.468;2022-10-30T08:14:19;97338.06;;;7.97;64.92
49178;BME280;35016;55.674;37.468;2022-10-30T08:16:46;97251.75;;;7.78;66.28
49178;BME280;35016;55.674;37.468;2022-10-30T08:19:19;97308.47;;;7.92;65.94
49178;BME280;35016;55.674;37.468;2022-10-30T08:21:54;97289.28;;;7.94;65.99
49178;BME280;35016;55.674;37.468;2022-10-30T08:24:27;97311.28;;;8.01;65.75
49178;BME280;35016;55.674;37.468;2022-10-30T08:26:59;97261.78;;;7.92;66.33
49178;BME280;35016;55.674;37.468;2022-10-30T08:29:29;97289.19;;;7.99;64.93
49178;BME280;35016;55.674;37.468;2022-10-30T08:32:05;97277.28;;;8.00;65.89
49178;BME280;35016;55.674;37.468;2022-10-30T08:34:37;97265.78;;;7.94;65.96
49178;BME280;35016;55.674;37.468;2022-10-30T08:37:05;97277.13;;;8.10;66.11
49178;BME280;35016;55.674;37.468;2022-10-30T08:39:36;97262.81;;;8.10;65.99
49178;BME280;35016;55.674;37.468;2022-10-30T08:42:35;97253.63;;;8.11;65.81
49178;BME280;35016;55.674;37.468;2022-10-30T08:45:08;97262.72;;;8.15;65.40
49178;BME280;35016;55.674;37.468;2022-10-30T08:47:57;97268.63;;;8.17;65.73
49178;BME280;35016;55.674;37.468;2022-10-30T08:50:27;97247.81;;;8.31;65.54
49178;BME280;35016;55.674;37.468;2022-10-30T08:52:54;97271.22;;;8.22;65.07
49178;BME280;35016;55.674;37.468;2022-10-30T08:55:24;97252.63;;;8.20;64.63
49178;BME280;35016;55.674;37.468;2022-10-30T08:57:55;97240.91;;;8.25;65.21
49178;BME280;35016;55.674;37.468;2022-10-30T09:00:22;97247.41;;;8.24;65.07
49178;BME280;35016;55.674;37.468;2022-10-30T09:03:09;97257.13;;;8.25;65.12
49178;BME280;35016;55.674;37.468;2022-10-30T09:05:57;97240.13;;;8.38;64.36
49178;BME280;35016;55.674;37.468;2022-10-30T09:08:47;97242.84;;;8.38;64.35
49178;BME280;35016;55.674;37.468;2022-10-30T09:11:25;97242.03;;;8.37;64.27
49178;BME280;35016;55.674;37.468;2022-10-30T09:13:52;97218.72;;;8.14;63.96
49178;BME280;35016;55.674;37.468;2022-10-30T09:16:21;97217.03;;;8.18;63.94
49178;BME280;35016;55.674;37.468;2022-10-30T09:18:48;97212.13;;;8.20;64.13
49178;BME280;35016;55.674;37.468;2022-10-30T09:21:16;97242.31;;;8.22;64.27
49178;BME280;35016;55.674;37.468;2022-10-30T09:23:47;97246.13;;;8.21;64.02
49178;BME280;35016;55.674;37.468;2022-10-30T09:26:37;97231.13;;;8.15;63.90
49178;BME280;35016;55.674;37.468;2022-10-30T09:29:22;97240.72;;;8.21;63.97
49178;BME280;35016;55.674;37.468;2022-10-30T09:32:17;97218.31;;;8.21;63.89
49178;BME280;35016;55.674;37.468;2022-10-30T09:34:59;97202.53;;;8.14;63.61
49178;BME280;35016;55.674;37.468;2022-10-30T09:37:38;97201.94;;;8.17;63.20
49178;BME280;35016;55.674;37.468;2022-10-30T09:40:17;97198.75;;;8.15;63.67
49178;BME280;35016;55.674;37.468;2022-10-30T09:42:49;97198.13;;;8.18;64.07
49178;BME280;35016;55.674;37.468;2022-10-30T09:45:43;97191.22;;;8.26;63.29
49178;BME280;35016;55.674;37.468;2022-10-30T09:54:14;97188.25;;;8.14;63.89
49178;BME280;35016;55.674;37.468;2022-10-30T09:57:11;97182.81;;;8.27;63.41
49178;BME280;35016;55.674;37.468;2022-10-30T10:05:26;97175.94;;;8.35;64.18
49178;BME280;35016;55.674;37.468;2022-10-30T10:08:43;97240.47;;;8.50;62.01
49178;BME280;35016;55.674;37.468;2022-10-30T10:12:08;97173.84;;;8.46;62.24
49178;BME280;35016;55.674;37.468;2022-10-30T10:14:42;97199.72;;;8.60;61.15
49178;BME280;35016;55.674;37.468;2022-10-30T10:17:13;97255.94;;;8.58;60.73
49178;BME280;35016;55.674;37.468;2022-10-30T10:19:47;97213.22;;;8.60;59.92
49178;BME280;35016;55.674;37.468;2022-10-30T10:22:25;97232.50;;;8.81;58.27
49178;BME280;35016;55.674;37.468;2022-10-30T10:24:54;97179.56;;;8.80;59.59
49178;BME280;35016;55.674;37.468;2022-10-30T10:33:18;97230.09;;;8.80;57.53
49178;BME280;35016;55.674;37.468;2022-10-30T10:36:02;97222.25;;;8.92;57.98
49178;BME280;35016;55.674;37.468;2022-10-30T10:38:53;97204.88;;;8.84;57.13
49178;BME280;35016;55.674;37.468;2022-10-30T10:41:46;97217.31;;;8.72;56.19
49178;BME280;35016;55.674;37.468;2022-10-30T10:44:34;97202.84;;;8.54;56.48
49178;BME280;35016;55.674;37.468;2022-10-30T10:50:33;97224.41;;;7.99;57.29
49178;BME280;35016;55.674;37.468;2022-10-30T10:53:26;97188.19;;;7.72;56.62
49178;BME280;35016;55.674;37.468;2022-10-30T10:55:57;97197.38;;;7.58;58.94
49178;BME280;35016;55.674;37.468;2022-10-30T10:58:48;97204.91;;;7.42;59.09
49178;BME280;35016;55.674;37.468;2022-10-30T11:01:22;97228.50;;;6.99;60.63
49178;BME280;35016;55.674;37.468;2022-10-30T11:04:04;97203.44;;;6.42;61.53
49178;BME280;35016;55.674;37.468;2022-10-30T11:06:40;97166.38;;;5.62;64.34
49178;BME280;35016;55.674;37.468;2022-10-30T11:09:17;97220.78;;;5.78;65.90
49178;BME280;35016;55.674;37.468;2022-10-30T11:11:52;97211.78;;;5.64;66.50
49178;BME280;35016;55.674;37.468;2022-10-30T11:14:22;97211.56;;;5.60;66.67
49178;BME280;35016;55.674;37.468;2022-10-30T11:17:03;97227.50;;;5.51;67.84
49178;BME280;35016;55.674;37.468;2022-10-30T11:19:34;97273.50;;;5.45;67.47
49178;BME280;35016;55.674;37.468;2022-10-30T11:22:03;97236.28;;;5.28;67.30
49178;BME280;35016;55.674;37.468;2022-10-30T11:24:36;97244.97;;;5.15;68.07
49178;BME280;35016;55.674;37.468;2022-10-30T11:30:02;97235.75;;;4.92;68.82
49178;BME280;35016;55.674;37.468;2022-10-30T11:32:32;97257.47;;;4.95;69.43
49178;BME280;35016;55.674;37.468;2022-10-30T11:35:00;97264.16;;;4.98;69.63
49178;BME280;35016;55.674;37.468;2022-10-30T11:37:31;97248.56;;;5.00;69.47
49178;BME280;35016;55.674;37.468;2022-10-30T11:40:19;97268.75;;;4.97;70.70
49178;BME280;35016;55.674;37.468;2022-10-30T11:45:31;97271.50;;;4.82;70.47
49178;BME280;35016;55.674;37.468;2022-10-30T11:48:01;97275.81;;;4.78;69.47
49178;BME280;35016;55.674;37.468;2022-10-30T11:50:46;97299.75;;;4.75;70.03
49178;BME280;35016;55.674;37.468;2022-10-30T11:53:20;97279.06;;;4.75;69.80
49178;BME280;35016;55.674;37.468;2022-10-30T11:55:50;97244.94;;;4.81;69.25
49178;BME280;35016;55.674;37.468;2022-10-30T11:58:42;97232.00;;;4.88;69.68
49178;BME280;35016;55.674;37.468;2022-10-30T12:01:20;97225.81;;;4.92;69.25
49178;BME280;35016;55.674;37.468;2022-10-30T12:03:49;97220.44;;;4.92;69.35
49178;BME280;35016;55.674;37.468;2022-10-30T12:08:59;97236.19;;;5.04;68.84
49178;BME280;35016;55.674;37.468;2022-10-30T12:11:29;97233.50;;;5.04;68.54
49178;BME280;35016;55.674;37.468;2022-10-30T12:13:57;97218.91;;;5.15;68.59
49178;BME280;35016;55.674;37.468;2022-10-30T12:16:25;97226.34;;;5.28;69.26
49178;BME280;35016;55.674;37.468;2022-10-30T12:19:06;97222.47;;;5.40;68.20
49178;BME280;35016;55.674;37.468;2022-10-30T12:21:49;97226.72;;;5.46;67.84
49178;BME280;35016;55.674;37.468;2022-10-30T12:24:27;97215.38;;;5.54;68.09
49178;BME280;35016;55.674;37.468;2022-10-30T12:27:00;97223.72;;;5.52;67.92
49178;BME280;35016;55.674;37.468;2022-10-30T12:29:38;97242.25;;;5.54;67.02
49178;BME280;35016;55.674;37.468;2022-10-30T12:32:37;97242.84;;;5.46;66.83
49178;BME280;35016;55.674;37.468;2022-10-30T12:37:42;97270.97;;;5.24;67.33
49178;BME280;35016;55.674;37.468;2022-10-30T12:40:15;97342.06;;;4.98;67.56
49178;BME280;35016;55.674;37.468;2022-10-30T12:43:00;97282.81;;;4.74;68.08
49178;BME280;35016;55.674;37.468;2022-10-30T12:45:33;97277.00;;;4.57;68.38
49178;BME280;35016;55.674;37.468;2022-10-30T12:53:53;97278.31;;;3.80;69.66
49178;BME280;35016;55.674;37.468;2022-10-30T12:56:29;97298.94;;;3.84;69.33
49178;BME280;35016;55.674;37.468;2022-10-30T13:01:56;97266.25;;;3.21;70.36
49178;BME280;35016;55.674;37.468;2022-10-30T13:04:36;97286.34;;;3.19;70.80
49178;BME280;35016;55.674;37.468;2022-10-30T13:10:03;97284.97;;;2.91;72.13
49178;BME280;35016;55.674;37.468;2022-10-30T13:12:37;97317.09;;;3.01;72.29
49178;BME280;35016;55.674;37.468;2022-10-30T13:15:25;97331.28;;;3.01;72.29
49178;BME280;35016;55.674;37.468;2022-10-30T13:17:58;97293.44;;;2.62;72.22
49178;BME280;35016;55.674;37.468;2022-10-30T13:20:29;97333.25;;;2.54;71.87
49178;BME280;35016;55.674;37.468;2022-10-30T13:23:10;97296.19;;;2.25;73.73
49178;BME280;35016;55.674;37.468;2022-10-30T13:28:42;97311.66;;;2.13;73.71
49178;BME280;35016;55.674;37.468;2022-10-30T13:31:32;97313.50;;;2.07;75.21
49178;BME280;35016;55.674;37.468;2022-10-30T13:34:21;97329.25;;;2.04;75.59
49178;BME280;35016;55.674;37.468;2022-10-30T13:36:58;97319.56;;;1.98;74.93
49178;BME280;35016;55.674;37.468;2022-10-30T13:42:40;97300.88;;;1.98;75.68
49178;BME280;35016;55.674;37.468;2022-10-30T13:45:29;97268.72;;;1.82;76.01
49178;BME280;35016;55.674;37.468;2022-10-30T13:48:17;97297.88;;;1.89;75.75
49178;BME280;35016;55.674;37.468;2022-10-30T13:53:38;97297.34;;;1.87;75.84
49178;BME280;35016;55.674;37.468;2022-10-30T13:56:10;97302.34;;;1.78;75.68
49178;BME280;35016;55.674;37.468;2022-10-30T14:01:20;97335.25;;;1.84;75.46
49178;BME280;35016;55.674;37.468;2022-10-30T14:09:38;97317.53;;;1.73;75.57
49178;BME280;35016;55.674;37.468;2022-10-30T14:12:43;97310.16;;;1.85;75.72
49178;BME280;35016;55.674;37.468;2022-10-30T14:20:32;97320.34;;;1.93;75.47
49178;BME280;35016;55.674;37.468;2022-10-30T14:23:07;97327.00;;;1.91;75.46
49178;BME280;35016;55.674;37.468;2022-10-30T14:25:38;97357.25;;;1.96;75.21
49178;BME280;35016;55.674;37.468;2022-10-30T14:28:18;97334.25;;;1.95;75.56
49178;BME280;35016;55.674;37.468;2022-10-30T14:30:46;97294.94;;;1.91;75.34
49178;BME280;35016;55.674;37.468;2022-10-30T14:41:40;97303.38;;;1.72;75.21
49178;BME280;35016;55.674;37.468;2022-10-30T14:50:30;97347.16;;;1.71;76.03
49178;BME280;35016;55.674;37.468;2022-10-30T14:56:20;97368.06;;;1.74;76.19
49178;BME280;35016;55.674;37.468;2022-10-30T15:07:31;97339.28;;;1.86;75.42
49178;BME280;35016;55.674;37.468;2022-10-30T15:15:42;97389.50;;;1.84;75.43
49178;BME280;35016;55.674;37.468;2022-10-30T15:18:18;97392.41;;;1.78;75.24
49178;BME280;35016;55.674;37.468;2022-10-30T15:20:50;97383.28;;;1.74;75.54
49178;BME280;35016;55.674;37.468;2022-10-30T15:23:23;97379.75;;;1.68;75.41
49178;BME280;35016;55.674;37.468;2022-10-30T15:25:55;97384.81;;;1.70;75.21
49178;BME280;35016;55.674;37.468;2022-10-30T15:28:27;97398.72;;;1.72;75.22
49178;BME280;35016;55.674;37.468;2022-10-30T15:31:03;97396.81;;;1.67;75.50
49178;BME280;35016;55.674;37.468;2022-10-30T15:33:31;97374.03;;;1.54;75.25
49178;BME280;35016;55.674;37.468;2022-10-30T15:36:03;97399.19;;;1.64;74.77
49178;BME280;35016;55.674;37.468;2022-10-30T15:38:31;97406.66;;;1.62;74.93
49178;BME280;35016;55.674;37.468;2022-10-30T15:41:01;97406.63;;;1.57;75.01
49178;BME280;35016;55.674;37.468;2022-10-30T15:43:33;97426.16;;;1.62;74.79
49178;BME280;35016;55.674;37.468;2022-10-30T15:46:08;97457.16;;;1.63;74.81
49178;BME280;35016;55.674;37.468;2022-10-30T15:48:39;97428.75;;;1.52;74.02